Latest Weather Observations for Christmas Creek

IDW60801

Issued at 8:05 pm WST Monday 21 April 2014 (issued every 30 minutes, with the page automatically refreshed every 10 minutes)

About weather observations | Map of weather stations | Latest weather observations for WA | Other Formats
Station Details ID: 505049 Name: CHRISTMAS CREEK Lat: -22.36 Lon: 119.65 Height: 437.21 m
Data from the previous 72 hours. | See also: Recent months for locations in Western Australia
Date/Time
WST
Temp
°C
App
Temp
°C
Dew
Point
Rel
Hum
%
Delta-T
°C
Wind Press
QNH
hPa
Press
MSL
hPa
Rain
since 9 am
mm
Dir
 
Spd
km/h
Gust
km/h
Spd
kts
Gust
kts
21/08:00pm 27.1 24.3 5.1 24 11.5 NNW 9 11 5 6 1014.9 1012.5 0.0
21/07:30pm 28.1 25.8 4.8 22 12.2 N 6 7 3 4 1014.7 - 0.0
21/07:00pm 28.9 25.6 4.8 21 12.7 N 11 13 6 7 1014.4 1011.9 0.0
21/06:30pm 30.7 28.3 4.4 19 13.9 E 6 7 3 4 1014.0 - 0.0
21/06:00pm 31.4 28.8 4.1 18 14.4 SSW 7 9 4 5 1013.7 1011.2 0.0
21/05:30pm 32.8 29.8 4.0 16 15.3 SSW 9 11 5 6 1013.3 - 0.0
21/05:00pm 33.4 30.4 4.0 16 15.6 S 9 13 5 7 1012.9 1010.5 0.0
21/04:30pm 33.9 31.5 4.3 15 15.9 SSW 6 11 3 6 1012.8 - 0.0
21/04:00pm 34.2 31.2 4.3 15 16.1 SW 9 20 5 11 1012.7 1010.2 0.0
21/03:30pm 33.9 30.9 4.2 15 15.9 SSE 9 19 5 10 1012.7 - 0.0
21/03:00pm 33.6 29.8 4.1 15 15.7 SSW 13 22 7 12 1012.8 1010.4 0.0
21/02:30pm 34.2 31.7 3.8 15 16.2 SSE 6 15 3 8 1012.7 - 0.0
21/02:00pm 34.7 31.4 4.4 15 16.3 WSW 11 28 6 15 1012.8 1010.4 0.0
21/01:30pm 34.3 31.7 4.3 15 16.1 WNW 7 17 4 9 1012.9 - 0.0
21/01:00pm 34.1 30.8 4.6 16 15.9 WSW 11 26 6 14 1013.0 1010.6 0.0
21/12:30pm 34.0 31.5 4.8 16 15.8 SSW 7 15 4 8 1013.4 - 0.0
21/12:00pm 33.2 29.5 4.6 16 15.3 NNW 13 24 7 13 1013.8 1011.3 0.0
21/11:30am 34.0 30.9 5.5 17 15.6 WNW 11 24 6 13 1014.3 - 0.0
21/11:00am 32.5 28.6 5.5 18 14.6 W 15 24 8 13 1014.6 1012.1 0.0
21/10:30am 31.7 28.3 5.8 19 14.1 W 13 26 7 14 1015.2 - 0.0
21/10:00am 31.2 29.0 6.1 20 13.6 WNW 7 17 4 9 1015.5 1013.1 0.0
21/09:30am 29.8 26.9 6.4 23 12.7 W 11 17 6 9 1015.7 - 0.0
21/09:00am 28.8 26.0 6.9 25 11.9 W 11 17 6 9 1015.7 1013.2 -
21/08:30am 27.8 25.5 7.6 28 11.1 W 9 15 5 8 1015.5 - -
21/08:00am 25.8 25.1 8.6 33 9.5 NNW 2 4 1 2 1015.4 1013.0 -
21/07:30am 24.1 23.4 8.4 36 8.6 N 2 6 1 3 1015.2 - -
21/07:00am 21.6 18.6 7.9 41 7.3 N 13 17 7 9 1014.9 1012.5 -
21/06:30am 20.5 17.5 7.5 43 6.8 N 13 17 7 9 1014.5 - -
21/06:00am 21.0 17.9 7.4 41 7.1 NNW 13 17 7 9 1014.2 1011.7 -
21/05:30am 20.3 16.4 7.1 42 6.9 N 17 19 9 10 1013.9 - -
21/05:00am 20.8 16.9 7.2 41 7.1 N 17 19 9 10 1013.7 1011.2 -
21/04:30am 21.1 17.1 6.8 39 7.4 N 17 20 9 11 1013.6 - -
21/04:00am 20.6 17.2 5.9 38 7.5 N 13 19 7 10 1013.4 1010.9 -
21/03:30am 21.6 17.9 6.2 36 7.9 N 15 17 8 9 1013.3 - -
21/03:00am 21.4 17.6 5.9 36 7.9 N 15 17 8 9 1013.1 1010.7 0.0
21/02:30am 22.1 17.9 5.8 34 8.4 N 17 19 9 10 1013.4 - -
21/02:00am 21.7 18.2 5.5 34 8.3 N 13 17 7 9 1013.5 1011.0 -
21/01:30am 21.7 18.6 5.4 34 8.3 N 11 13 6 7 1013.5 - -
21/01:00am 22.1 18.9 5.1 33 8.6 N 11 13 6 7 1013.6 1011.1 -
21/12:30am 23.4 19.8 4.8 30 9.5 N 13 15 7 8 1013.5 - -
21/12:00am 24.3 20.2 4.1 27 10.2 N 15 19 8 10 1013.4 1010.9 -
 
Date/Time
WST
Temp
°C
App
Temp
°C
Dew
Point
Rel
Hum
%
Delta-T
°C
Wind Press
QNH
hPa
Press
MSL
hPa
Rain
since 9 am
mm
Dir
 
Spd
km/h
Gust
km/h
Spd
kts
Gust
kts
20/11:30pm 25.8 20.5 2.0 21 11.7 N 19 24 10 13 1013.3 - -
20/11:00pm 25.7 20.8 2.3 22 11.5 N 17 20 9 11 1013.3 1010.8 -
20/10:30pm 25.2 20.4 2.6 23 11.2 N 17 19 9 10 1013.4 - -
20/10:00pm 25.3 21.0 3.0 23 11.1 N 15 19 8 10 1013.6 1011.1 -
20/09:30pm 26.2 22.3 3.3 22 11.5 N 13 17 7 9 1013.6 - -
20/09:00pm 25.7 23.0 3.6 24 11.2 NNE 7 11 4 6 1013.6 1011.1 -
20/08:30pm 25.8 23.7 3.8 24 11.2 NNE 4 6 2 3 1013.7 - -
20/08:00pm 26.2 23.1 3.8 23 11.4 N 9 11 5 6 1013.7 1011.2 -
20/07:30pm 26.8 23.8 3.9 23 11.7 N 9 11 5 6 1013.5 - -
20/07:00pm 28.3 26.1 3.6 20 12.7 NNE 4 4 2 2 1013.1 1010.7 -
20/06:30pm 29.7 27.5 3.4 18 13.6 E 4 6 2 3 1012.9 - -
20/06:00pm 31.2 27.9 2.7 16 14.7 SW 9 11 5 6 1012.6 1010.1 -
20/05:30pm 32.8 30.1 2.5 14 15.7 SW 6 9 3 5 1012.3 - -
20/05:00pm 33.8 30.9 2.5 14 16.3 W 7 15 4 8 1012.1 1009.6 -
20/04:30pm 34.3 31.9 2.3 13 16.7 NNW 4 9 2 5 1012.0 - -
20/04:00pm 33.8 30.1 2.6 14 16.3 SSW 11 20 6 11 1012.0 1009.5 -
20/02:30pm 33.8 30.5 2.5 14 16.3 SSE 9 32 5 17 1012.1 - 0.0
20/02:00pm 34.4 30.4 2.6 13 16.6 NNW 13 22 7 12 1012.1 1009.6 0.0
20/01:30pm 34.1 30.8 2.4 13 16.5 N 9 19 5 10 1012.4 - 0.0
20/01:00pm 33.6 30.3 2.3 14 16.2 S 9 20 5 11 1012.8 1010.4 0.0
20/12:30pm 33.7 30.5 2.8 14 16.2 N 9 20 5 11 1013.4 - 0.0
20/12:00pm 33.2 28.9 3.0 15 15.8 WNW 15 26 8 14 1013.9 1011.4 0.0
20/11:30am 32.9 29.7 3.1 15 15.6 N 9 17 5 9 1014.4 - 0.0
20/11:00am 31.9 28.4 3.4 16 14.9 NE 11 20 6 11 1014.9 1012.5 0.0
20/10:30am 32.0 28.1 3.4 16 15.0 NNE 13 24 7 13 1015.2 - 0.0
20/10:00am 31.1 27.1 2.8 16 14.6 NNE 13 22 7 12 1015.3 1012.9 0.0
20/09:30am 30.9 28.9 4.2 18 14.1 WNW 4 17 2 9 1015.4 - 0.0
20/09:00am 29.4 27.9 5.0 21 12.9 NNE 2 4 1 2 1015.8 1013.3 0.0
20/08:30am 27.2 24.8 5.3 24 11.5 N 7 9 4 5 1015.9 - 0.0
20/08:00am 25.5 23.1 5.4 27 10.5 N 7 11 4 6 1015.9 1013.4 0.0
20/07:30am 23.5 21.2 4.6 29 9.6 N 6 7 3 4 1015.8 - 0.0
20/07:00am 21.1 18.6 3.7 32 8.5 N 6 9 3 5 1015.3 1012.9 0.0
20/06:30am 19.4 16.6 3.0 33 7.8 N 7 13 4 7 1015.1 - 0.0
20/06:00am 19.0 15.7 2.7 33 7.7 N 9 13 5 7 1014.9 1012.5 0.0
20/05:30am 18.1 15.8 2.5 35 7.3 N 4 7 2 4 1014.8 - 0.0
20/05:00am 18.4 15.6 2.2 34 7.6 NNE 6 7 3 4 1014.6 1012.1 0.0
20/04:30am 19.0 16.7 2.7 33 7.7 WNW 4 4 2 2 1014.5 - 0.0
20/04:00am 20.3 18.2 2.0 29 8.6 NE 2 6 1 3 1014.4 1011.9 0.0
20/03:30am 20.9 18.1 1.9 28 9.0 NW 6 7 3 4 1014.4 - 0.0
20/03:00am 21.7 19.3 1.9 27 9.4 SW 4 7 2 4 1014.2 1011.7 0.0
20/02:30am 23.3 19.1 1.6 24 10.4 NNW 13 22 7 12 1014.2 - 0.0
20/02:00am 23.8 18.8 1.5 23 10.7 N 17 19 9 10 1013.8 1011.3 0.0
20/01:30am 23.6 18.9 1.2 23 10.7 N 15 17 8 9 1014.0 - 0.0
20/01:00am 24.0 19.3 0.7 21 11.0 N 15 19 8 10 1014.1 1011.6 0.0
20/12:30am 24.3 19.1 0.4 20 11.3 N 17 19 9 10 1014.2 - 0.0
20/12:00am 24.7 20.3 0.2 20 11.5 NNE 13 15 7 8 1014.5 1012.0 0.0
 
Date/Time
WST
Temp
°C
App
Temp
°C
Dew
Point
Rel
Hum
%
Delta-T
°C
Wind Press
QNH
hPa
Press
MSL
hPa
Rain
since 9 am
mm
Dir
 
Spd
km/h
Gust
km/h
Spd
kts
Gust
kts
19/11:30pm 24.8 20.8 0.2 20 11.6 NNE 11 13 6 7 1014.8 - 0.0
19/11:00pm 22.9 19.5 1.7 24 10.1 NNE 9 9 5 5 1014.9 1012.5 0.0
19/10:30pm 22.0 19.2 2.3 27 9.5 NNE 6 9 3 5 1015.2 - 0.0
19/10:00pm 23.1 19.7 2.1 25 10.1 N 9 9 5 5 1015.3 1012.9 0.0
19/09:30pm 23.4 21.0 2.1 24 10.3 NW 4 6 2 3 1015.4 - 0.0
19/09:00pm 24.4 22.0 1.9 23 10.9 NNW 4 4 2 2 1015.4 1013.0 0.0
19/08:30pm 25.2 22.3 1.7 21 11.4 NNE 6 7 3 4 1015.3 - 0.0
19/08:00pm 25.7 22.9 1.8 21 11.7 WNW 6 6 3 3 1015.0 1012.6 0.0
19/07:30pm 26.4 23.9 1.7 20 12.1 W 4 4 2 2 1014.7 - 0.0
19/07:00pm 28.2 25.6 1.1 17 13.3 W 4 6 2 3 1014.4 1011.9 0.0
19/06:30pm 29.1 26.1 0.5 15 14.0 SW 6 7 3 4 1014.2 - 0.0
19/06:00pm 30.3 27.0 0.3 14 14.7 SW 7 7 4 4 1014.0 1011.5 0.0
19/05:30pm 32.3 28.6 -0.1 12 16.0 SSW 9 13 5 7 1013.8 - 0.0
19/05:11pm 32.8 29.4 -0.6 12 16.4 SSW 7 15 4 8 1013.5 - 0.0
19/05:00pm 33.1 29.4 -0.1 12 16.5 SW 9 15 5 8 1013.5 1011.0 0.0
19/04:55pm 33.2 29.5 -0.1 12 16.6 SSW 9 17 5 9 1013.4 - 0.0
19/04:30pm 33.3 30.0 -0.1 12 16.6 SSW 7 19 4 10 1013.3 - 0.0
19/04:00pm 33.5 29.5 0.2 12 16.7 SSW 11 19 6 10 1013.3 1010.8 0.0
19/03:30pm 34.0 30.4 0.5 12 16.9 SSE 9 22 5 12 1013.4 - 0.0
19/03:00pm 34.3 30.3 0.6 12 17.1 SSE 11 17 6 9 1013.4 1010.9 0.0
19/02:30pm 33.7 30.7 0.5 12 16.7 SW 6 15 3 8 1013.5 - 0.0
19/02:00pm 33.7 29.3 0.6 12 16.7 WSW 13 24 7 13 1013.8 1011.3 0.0
19/01:30pm 33.2 28.7 0.0 12 16.5 S 13 28 7 15 1014.2 - 0.0
19/01:00pm 33.2 29.8 -0.8 11 16.7 W 7 17 4 9 1014.7 1012.2 0.0
19/12:30pm 33.3 28.7 -0.8 11 16.8 SW 13 26 7 14 1015.2 - 0.0
19/12:00pm 32.5 28.4 -0.2 12 16.1 S 11 22 6 12 1015.9 1013.4 0.0
19/11:30am 32.1 27.3 0.0 13 15.9 S 15 22 8 12 1016.5 - 0.0
19/11:00am 31.9 27.6 0.9 14 15.5 SE 13 22 7 12 1017.0 1014.6 0.0
19/10:55am 31.8 27.5 0.8 14 15.5 ESE 13 30 7 16 1017.0 - 0.0
19/10:36am 32.2 28.9 2.5 15 15.3 ESE 9 19 5 10 1017.3 - 0.0
19/10:30am 31.1 27.1 0.5 14 15.2 E 11 15 6 8 1017.3 - 0.0
19/10:00am 30.8 26.9 1.0 15 14.8 E 11 20 6 11 1017.7 1015.3 0.0
19/09:30am 29.0 26.1 2.4 18 13.4 SE 7 15 4 8 1018.2 - 0.0
19/09:00am 26.1 23.9 5.1 26 10.9 S 6 11 3 6 1018.4 1015.9 0.0
19/08:30am 23.7 22.2 6.9 34 8.9 S 4 6 2 3 1018.4 - 0.0
19/08:00am 21.5 20.2 7.6 40 7.3 S 4 6 2 3 1018.3 1015.8 0.0
19/07:30am 19.6 18.3 7.6 45 6.3 SW 4 6 2 3 1018.1 - 0.0
19/07:00am 18.0 16.6 5.4 43 6.2 W 2 4 1 2 1017.8 1015.4 0.0
19/06:30am 16.0 13.6 4.4 46 5.6 WNW 6 7 3 4 1017.5 - 0.0
19/06:00am 15.9 14.0 5.1 48 5.2 WNW 4 6 2 3 1017.3 1014.9 0.0
19/05:30am 17.1 14.6 5.0 44 5.9 N 7 11 4 6 1017.2 - 0.0
19/05:00am 17.4 15.1 5.7 46 5.8 W 7 9 4 5 1017.2 1014.8 0.0
19/04:30am 17.3 15.1 5.2 45 5.9 WSW 6 7 3 4 1017.1 - 0.0
19/04:00am 18.1 16.1 2.2 34 7.4 SSE 2 4 1 2 1017.2 1014.8 0.0
19/03:30am 18.6 16.2 1.9 32 7.8 W 4 6 2 3 1017.3 - 0.0
19/03:00am 18.2 15.3 1.6 33 7.6 SW 6 6 3 3 1017.2 1014.8 0.0
19/02:45am 19.4 17.3 1.6 30 8.3 E 2 4 1 2 1017.2 - 0.0
19/02:33am 19.3 17.2 1.6 30 8.2 SSE 2 4 1 2 1017.2 - 0.0
19/02:30am 19.1 17.0 1.6 31 8.1 ESE 2 6 1 3 1017.2 - 0.0
19/02:00am 21.1 18.6 1.4 27 9.2 NNW 4 6 2 3 1017.3 1014.9 0.0
19/01:30am 21.7 18.6 1.4 26 9.6 ENE 7 9 4 5 1017.4 - 0.0
19/01:16am 21.0 18.5 1.5 27 9.2 NE 4 6 2 3 1017.5 - 0.0
19/01:00am 20.7 17.8 1.5 28 9.0 E 6 9 3 5 1017.6 1015.2 0.0
19/12:52am 21.2 18.1 1.4 27 9.3 E 7 9 4 5 1017.7 - 0.0
19/12:41am 21.9 18.9 1.7 26 9.6 ENE 7 9 4 5 1017.7 - 0.0
19/12:30am 21.7 18.7 1.8 27 9.4 ENE 7 9 4 5 1017.8 - 0.0
19/12:02am 20.3 17.8 1.7 29 8.7 E 4 6 2 3 1018.1 - 0.0
19/12:00am 20.9 18.4 1.6 27 9.1 ENE 4 7 2 4 1018.1 1015.6 0.0
 
Date/Time
WST
Temp
°C
App
Temp
°C
Dew
Point
Rel
Hum
%
Delta-T
°C
Wind Press
QNH
hPa
Press
MSL
hPa
Rain
since 9 am
mm
Dir
 
Spd
km/h
Gust
km/h
Spd
kts
Gust
kts
18/11:30pm 22.3 19.8 1.7 25 9.8 NNE 4 7 2 4 1018.1 - 0.0
18/11:00pm 23.1 20.1 2.0 25 10.1 NE 7 9 4 5 1018.3 1015.8 0.0
18/10:30pm 21.9 19.2 2.5 28 9.3 NE 6 7 3 4 1018.5 - 0.0
18/10:00pm 22.6 20.6 2.4 26 9.7 ENE 2 4 1 2 1018.6 1016.1 0.0
18/09:30pm 23.1 20.5 3.0 27 9.9 NNE 6 6 3 3 1018.6 - 0.0
18/09:00pm 24.1 21.8 2.8 25 10.5 ENE 4 6 2 3 1018.6 1016.1 0.0
18/08:30pm 25.5 23.2 2.5 22 11.4 E 4 4 2 2 1018.3 - 0.0

Other Formats:

Comma delimited format used in spreadsheet applications
http://www.bom.gov.au/fwo/IDW60801/IDW60801.99737.axf

JavaScript Object Notation format (JSON) in row-major order
http://www.bom.gov.au/fwo/IDW60801/IDW60801.99737.json